Time;durP1;ratioP1;P1;durP2;ratioP2;P2;SDS_P1;SDS_P2;PMS_P1;PMS_P2;Temp;Humidity;BMP_temperature;BMP_pressure;BME280_temperature;BME280_humidity;BME280_pressure;Samples;Min_cycle;Max_cycle;Signal;HPM_P1;HPM_P2
2021/12/02 00:02:08;;;;;;;;;1.75;1.75;;;;;7.69;71.75;99736.28;4993978;27;45458;-64
2021/12/02 00:04:36;;;;;;;;;2.00;2.00;;;;;7.68;71.71;99729.28;4976791;28;45402;-66
2021/12/02 00:07:04;;;;;;;;;5.00;4.00;;;;;7.67;72.13;99732.84;4976314;28;46184;-64
2021/12/02 00:09:29;;;;;;;;;5.00;4.00;;;;;7.55;72.13;99704.47;4997308;27;45520;-69
2021/12/02 00:11:55;;;;;;;;;5.25;2.50;;;;;7.66;71.59;99736.41;4997458;27;45393;-65
2021/12/02 00:14:25;;;;;;;;;2.00;2.00;;;;;7.51;71.89;99708.19;4992496;28;45385;-64
2021/12/02 00:17:04;;;;;;;;;4.75;1.75;;;;;7.45;72.29;99703.28;5011233;27;45485;-66
2021/12/02 00:22:14;;;;;;;;;4.75;2.25;;;;;7.49;72.00;99718.03;4992326;28;45328;-64
2021/12/02 00:24:45;;;;;;;;;5.50;3.75;;;;;7.60;72.64;99747.38;4985390;27;45604;-63
2021/12/02 00:27:11;;;;;;;;;2.50;1.25;;;;;7.61;72.51;99742.94;4993586;27;47080;-66
2021/12/02 00:29:39;;;;;;;;;5.25;3.75;;;;;7.67;72.39;99753.16;4992542;28;45315;-66
2021/12/02 00:32:07;;;;;;;;;3.25;3.25;;;;;7.63;72.51;99752.47;4974525;28;45419;-65
2021/12/02 00:34:36;;;;;;;;;1.75;1.75;;;;;7.59;72.22;99745.66;5005101;27;45422;-67
2021/12/02 00:37:01;;;;;;;;;4.00;4.00;;;;;7.62;73.03;99758.72;4973844;28;46101;-66
2021/12/02 00:39:29;;;;;;;;;7.00;5.00;;;;;7.60;72.80;99755.31;5001875;28;45329;-67
2021/12/02 00:41:55;;;;;;;;;2.75;2.75;;;;;7.63;72.83;99747.19;4992764;28;45376;-65
2021/12/02 00:44:21;;;;;;;;;4.75;2.00;;;;;7.65;72.96;99745.31;4993472;27;45515;-66
2021/12/02 00:46:47;;;;;;;;;4.00;1.75;;;;;7.68;72.86;99761.03;4992385;28;46262;-64
2021/12/02 00:49:17;;;;;;;;;6.00;4.50;;;;;7.73;73.01;99763.41;4978225;28;45988;-64
2021/12/02 00:51:51;;;;;;;;;6.00;4.00;;;;;7.69;73.27;99768.03;5019555;27;45337;-65
2021/12/02 00:54:18;;;;;;;;;4.50;4.50;;;;;7.67;73.37;99771.69;4974032;28;45678;-66
2021/12/02 00:56:44;;;;;;;;;6.00;5.00;;;;;7.63;73.41;99754.28;4992604;28;45378;-66
2021/12/02 00:59:09;;;;;;;;;5.75;4.00;;;;;7.60;73.42;99757.09;4992683;28;45461;-65
2021/12/02 01:01:37;;;;;;;;;5.00;5.00;;;;;7.59;73.67;99779.22;4996295;27;45421;-65
2021/12/02 01:04:15;;;;;;;;;4.50;4.50;;;;;7.54;74.08;99776.81;4996563;28;45490;-65
2021/12/02 01:06:41;;;;;;;;;11.50;6.00;;;;;7.52;74.25;99770.75;4982422;28;45315;-64
2021/12/02 01:09:09;;;;;;;;;5.00;4.00;;;;;7.62;73.51;99771.09;5005419;27;45515;-66
2021/12/02 01:11:35;;;;;;;;;11.25;6.50;;;;;7.66;73.67;99783.22;4995451;27;45260;-64
2021/12/02 01:14:01;;;;;;;;;7.25;5.50;;;;;7.70;73.79;99787.41;4978048;28;45536;-64
2021/12/02 01:16:27;;;;;;;;;5.00;5.00;;;;;7.62;73.93;99798.41;4978196;27;47769;-63
2021/12/02 01:18:52;;;;;;;;;5.00;5.00;;;;;7.48;74.46;99785.09;5000131;27;45346;-65
2021/12/02 01:21:20;;;;;;;;;4.50;3.75;;;;;7.62;74.34;99789.63;4995075;27;45316;-64
2021/12/02 01:23:51;;;;;;;;;5.00;5.00;;;;;7.63;74.36;99788.69;4993795;28;45519;-64
2021/12/02 01:26:18;;;;;;;;;6.00;4.75;;;;;7.64;74.72;99796.53;4994207;28;47090;-65
2021/12/02 01:28:44;;;;;;;;;5.75;5.75;;;;;7.57;74.47;99781.97;4995039;28;45290;-63
2021/12/02 01:31:12;;;;;;;;;4.75;4.75;;;;;7.55;74.09;99791.78;4994838;27;45553;-65
2021/12/02 01:33:39;;;;;;;;;5.00;5.00;;;;;7.55;74.34;99781.19;4995812;27;45421;-64
2021/12/02 01:36:06;;;;;;;;;6.50;6.50;;;;;7.65;74.02;99781.50;5004468;28;46571;-66
2021/12/02 01:38:33;;;;;;;;;10.00;8.00;;;;;7.62;74.47;99771.94;5005203;27;45372;-65
2021/12/02 01:41:01;;;;;;;;;4.25;4.00;;;;;7.71;74.47;99810.28;4995372;28;45444;-65
2021/12/02 01:43:41;;;;;;;;;9.00;6.25;;;;;7.61;73.90;99802.00;4975633;28;45699;-64
2021/12/02 01:46:07;;;;;;;;;5.50;5.25;;;;;7.51;74.77;99814.03;5000905;28;45361;-64
2021/12/02 01:48:38;;;;;;;;;6.25;5.25;;;;;7.43;74.56;99824.22;5015330;27;45574;-65
2021/12/02 01:51:06;;;;;;;;;9.00;7.25;;;;;7.25;75.50;99804.88;4996176;28;45352;-64
2021/12/02 01:53:35;;;;;;;;;6.00;6.00;;;;;7.33;74.94;99828.28;4997904;28;45628;-64
2021/12/02 01:56:15;;;;;;;;;6.75;6.75;;;;;7.40;75.66;99838.44;4974264;27;46549;-66
2021/12/02 01:58:44;;;;;;;;;5.75;5.25;;;;;7.38;75.25;99837.66;5002462;27;45384;-66
2021/12/02 02:01:15;;;;;;;;;10.00;6.00;;;;;7.36;74.70;99823.69;5006457;27;45449;-66
2021/12/02 02:03:41;;;;;;;;;9.50;8.25;;;;;7.50;74.42;99844.06;4989409;28;45452;-65
2021/12/02 02:06:09;;;;;;;;;5.00;5.00;;;;;7.46;74.44;99837.25;4986889;27;48393;-65
2021/12/02 02:08:42;;;;;;;;;9.75;8.00;;;;;7.48;75.00;99843.31;4979048;28;45524;-65
2021/12/02 02:11:08;;;;;;;;;8.00;4.00;;;;;7.44;74.18;99852.38;4994348;28;45317;-64
2021/12/02 02:13:34;;;;;;;;;3.00;1.50;;;;;7.40;74.89;99861.38;4995038;28;45536;-65
2021/12/02 02:16:00;;;;;;;;;7.00;6.00;;;;;7.41;74.18;99863.09;4997266;27;45604;-65
2021/12/02 02:18:25;;;;;;;;;5.75;5.75;;;;;7.34;74.11;99840.56;5016883;27;45493;-65
2021/12/02 02:23:26;;;;;;;;;9.50;4.25;;;;;7.39;74.17;99849.09;4998968;28;45422;-66
2021/12/02 02:25:52;;;;;;;;;5.00;5.00;;;;;7.44;73.65;99868.25;4992300;28;45496;-66
2021/12/02 02:28:18;;;;;;;;;5.00;5.00;;;;;7.47;73.58;99873.34;5004150;27;45493;-66
2021/12/02 02:30:43;;;;;;;;;5.75;5.25;;;;;7.45;73.83;99882.31;5002054;28;45445;-66
2021/12/02 02:33:13;;;;;;;;;4.50;4.50;;;;;7.35;74.25;99882.81;4982088;28;45587;-64
2021/12/02 02:35:41;;;;;;;;;4.50;4.50;;;;;7.41;74.27;99884.25;4970300;28;47164;-65
2021/12/02 02:38:07;;;;;;;;;6.00;5.25;;;;;7.33;74.07;99891.78;4994378;28;45548;-65
2021/12/02 02:40:33;;;;;;;;;5.00;5.00;;;;;7.35;74.26;99895.19;5002813;28;45436;-64
2021/12/02 02:43:06;;;;;;;;;6.00;6.00;;;;;7.29;74.24;99893.72;5002510;27;45258;-67
2021/12/02 02:45:32;;;;;;;;;5.75;5.75;;;;;7.33;73.96;99902.34;5007868;28;45425;-65
2021/12/02 02:47:58;;;;;;;;;7.25;7.25;;;;;7.29;74.25;99887.56;4994382;27;45210;-65
2021/12/02 02:50:23;;;;;;;;;4.50;2.00;;;;;7.36;74.08;99891.59;4972990;28;45471;-66
2021/12/02 02:53:07;;;;;;;;;4.75;4.75;;;;;7.45;73.81;99900.84;4985884;28;45478;-65
2021/12/02 02:55:34;;;;;;;;;4.25;4.25;;;;;7.25;73.78;99880.75;4979492;28;46344;-65
2021/12/02 03:00:42;;;;;;;;;3.25;3.25;;;;;7.20;73.23;99875.72;4993938;27;45528;-67
2021/12/02 03:03:49;;;;;;;;;5.25;3.75;;;;;7.44;73.36;99900.00;4994147;28;45408;-66
2021/12/02 03:08:43;;;;;;;;;5.50;5.00;;;;;7.46;72.79;99902.53;5009126;27;45544;-66
2021/12/02 03:11:11;;;;;;;;;6.50;3.50;;;;;7.55;72.70;99913.50;4976458;28;45474;-65
2021/12/02 03:13:48;;;;;;;;;6.75;5.25;;;;;7.59;72.44;99920.31;4988147;27;45217;-66
2021/12/02 03:18:58;;;;;;;;;3.25;3.25;;;;;7.54;72.04;99922.34;4979508;28;45390;-64
2021/12/02 03:21:24;;;;;;;;;21.00;11.50;;;;;7.58;71.52;99928.34;4976601;28;45329;-66
2021/12/02 03:23:55;;;;;;;;;9.00;6.25;;;;;7.46;71.39;99939.59;4978659;28;45367;-66
2021/12/02 03:26:21;;;;;;;;;4.00;4.00;;;;;7.39;71.16;99931.09;4993475;28;45418;-67
2021/12/02 03:28:48;;;;;;;;;2.25;2.25;;;;;7.28;70.31;99925.53;4993859;27;45456;-66
2021/12/02 03:31:14;;;;;;;;;5.50;4.75;;;;;7.29;70.64;99936.06;4972863;28;45390;-66
2021/12/02 03:33:41;;;;;;;;;2.00;2.00;;;;;7.38;70.67;99948.78;4957582;28;45232;-64
2021/12/02 03:36:07;;;;;;;;;1.00;1.00;;;;;7.49;71.60;99950.00;4988329;28;45504;-64
2021/12/02 03:38:32;;;;;;;;;1.00;1.00;;;;;7.43;70.20;99935.31;4993466;27;45377;-67
2021/12/02 03:40:58;;;;;;;;;1.00;1.00;;;;;7.47;70.46;99947.44;4976251;28;45684;-66
2021/12/02 03:43:23;;;;;;;;;1.00;1.00;;;;;7.42;68.90;99949.44;4993628;28;45335;-65
2021/12/02 03:45:49;;;;;;;;;1.00;1.00;;;;;7.19;69.51;99926.03;4976786;28;47314;-66
2021/12/02 03:48:15;;;;;;;;;0.00;0.00;;;;;7.37;70.10;99955.00;4997622;27;45512;-64
2021/12/02 03:50:40;;;;;;;;;1.75;1.75;;;;;7.40;70.23;99956.63;4994315;28;45362;-66
2021/12/02 03:53:06;;;;;;;;;0.75;0.75;;;;;7.42;70.17;99960.03;5004850;27;45461;-64
2021/12/02 03:55:31;;;;;;;;;1.25;1.00;;;;;7.47;69.56;99968.59;4996900;27;45327;-66
2021/12/02 03:57:56;;;;;;;;;1.75;0.50;;;;;7.36;68.80;99960.38;4976198;28;45262;-65
2021/12/02 04:00:22;;;;;;;;;9.50;4.50;;;;;7.37;69.23;99970.00;4997894;28;45265;-66
2021/12/02 04:02:47;;;;;;;;;0.00;0.00;;;;;7.32;68.54;99980.00;5000945;27;45382;-66
2021/12/02 04:05:13;;;;;;;;;2.00;2.00;;;;;7.10;68.04;99970.53;4986328;28;45477;-66
2021/12/02 04:07:38;;;;;;;;;0.00;0.00;;;;;7.09;67.82;99967.97;5000909;27;45305;-66
2021/12/02 04:10:04;;;;;;;;;14.00;6.50;;;;;7.05;67.10;99969.91;4976221;28;45475;-65
2021/12/02 04:15:02;;;;;;;;;11.50;9.75;;;;;7.15;67.20;99972.06;4992425;27;45455;-65
2021/12/02 04:20:24;;;;;;;;;17.00;11.75;;;;;7.05;65.45;99977.84;4991865;28;45566;-65
2021/12/02 04:22:52;;;;;;;;;15.75;9.50;;;;;7.06;65.16;99979.56;5002099;28;45572;-65
2021/12/02 04:25:18;;;;;;;;;10.00;8.00;;;;;6.99;64.34;99974.66;4992112;27;46635;-66
2021/12/02 04:27:45;;;;;;;;;8.00;8.00;;;;;6.85;63.81;99972.72;4975705;28;45806;-66
2021/12/02 04:30:14;;;;;;;;;5.00;3.00;;;;;6.82;64.65;99987.88;4992609;28;45543;-66
2021/12/02 04:32:40;;;;;;;;;1.00;1.00;;;;;6.60;64.59;99990.72;4993606;28;45594;-65
2021/12/02 04:35:07;;;;;;;;;3.50;2.00;;;;;6.65;65.11;100001.94;5008422;27;45467;-65
2021/12/02 04:37:33;;;;;;;;;1.00;1.00;;;;;6.63;65.29;100001.13;4974869;28;45387;-67
2021/12/02 04:39:58;;;;;;;;;3.50;3.50;;;;;6.57;65.62;100001.44;4973601;28;45403;-64
2021/12/02 04:42:24;;;;;;;;;0.25;0.25;;;;;6.60;65.99;100011.84;4962776;28;45690;-64
2021/12/02 04:44:49;;;;;;;;;0.00;0.00;;;;;6.43;65.54;100005.63;4992822;28;45410;-66
2021/12/02 04:47:15;;;;;;;;;2.00;0.00;;;;;6.39;65.74;100013.75;4992970;27;45781;-63
2021/12/02 04:49:43;;;;;;;;;1.00;1.00;;;;;6.26;66.10;100024.06;4993647;28;45454;-68
2021/12/02 04:52:09;;;;;;;;;0.25;0.00;;;;;6.05;66.58;99988.09;4993592;28;45567;-64
2021/12/02 04:54:35;;;;;;;;;1.75;1.75;;;;;6.15;67.46;100021.06;4996633;28;46050;-66
2021/12/02 04:57:00;;;;;;;;;0.00;0.00;;;;;6.21;68.14;100031.31;4992405;28;46704;-64
2021/12/02 04:59:26;;;;;;;;;1.00;1.00;;;;;6.16;67.48;100031.53;4974053;28;45370;-65
2021/12/02 05:01:51;;;;;;;;;2.00;1.00;;;;;6.00;67.39;100013.88;4996414;28;45398;-65
2021/12/02 05:04:17;;;;;;;;;2.50;1.50;;;;;5.92;68.11;100016.84;4997681;28;46276;-64
2021/12/02 05:06:42;;;;;;;;;0.50;0.50;;;;;6.08;68.75;100038.09;4995875;27;45323;-65
2021/12/02 05:09:08;;;;;;;;;0.75;0.75;;;;;6.02;68.43;100047.16;4998219;27;45762;-64
2021/12/02 05:11:34;;;;;;;;;1.00;1.00;;;;;6.09;68.03;100048.59;4977540;28;45545;-65
2021/12/02 05:13:59;;;;;;;;;2.00;0.50;;;;;6.05;67.27;100046.16;4992421;28;45477;-66
2021/12/02 05:16:25;;;;;;;;;1.00;1.00;;;;;5.88;68.22;100039.00;5000023;28;45528;-64
2021/12/02 05:18:51;;;;;;;;;1.00;1.00;;;;;5.84;68.85;100037.41;4984036;28;45317;-64
2021/12/02 05:21:17;;;;;;;;;0.00;0.00;;;;;5.91;68.38;100046.81;5006736;27;45235;-66
2021/12/02 05:23:42;;;;;;;;;8.00;1.00;;;;;5.87;68.61;100026.75;4973953;28;47904;-65
2021/12/02 05:26:08;;;;;;;;;2.00;1.00;;;;;5.96;67.61;100051.88;4992054;27;45421;-66
2021/12/02 05:28:33;;;;;;;;;4.25;4.00;;;;;5.79;68.14;100044.69;5044324;27;45617;-65
2021/12/02 05:30:59;;;;;;;;;4.00;2.00;;;;;5.71;68.22;100046.78;4993052;28;45483;-65
2021/12/02 05:33:24;;;;;;;;;3.50;1.00;;;;;5.75;68.04;100062.44;4992505;27;45392;-65
2021/12/02 05:35:50;;;;;;;;;2.00;2.00;;;;;5.73;68.79;100047.59;4989770;28;45493;-66
2021/12/02 05:38:15;;;;;;;;;1.50;1.50;;;;;5.83;68.27;100056.81;4992396;28;45518;-64
2021/12/02 05:40:40;;;;;;;;;2.75;1.00;;;;;5.86;68.83;100073.38;4991996;28;45569;-65
2021/12/02 05:43:06;;;;;;;;;1.25;1.00;;;;;5.83;68.22;100065.56;5000220;27;45369;-65
2021/12/02 05:45:32;;;;;;;;;1.00;1.00;;;;;5.97;68.14;100072.03;4973914;28;45346;-66
2021/12/02 05:47:57;;;;;;;;;1.00;1.00;;;;;6.04;68.21;100063.78;4991374;28;45421;-66
2021/12/02 05:50:23;;;;;;;;;7.75;1.00;;;;;6.06;67.93;100063.72;4994440;28;45537;-66
2021/12/02 05:52:48;;;;;;;;;3.25;1.75;;;;;5.98;67.24;100056.13;4982264;27;46247;-66
2021/12/02 05:55:14;;;;;;;;;3.50;1.50;;;;;5.97;67.95;100074.69;4994232;28;45557;-65
2021/12/02 05:57:39;;;;;;;;;1.25;1.00;;;;;5.91;67.36;100063.50;4978540;28;45410;-65
2021/12/02 06:00:08;;;;;;;;;2.00;1.00;;;;;5.83;67.35;100062.09;4994916;28;45473;-66
2021/12/02 06:02:36;;;;;;;;;1.00;1.00;;;;;5.59;68.14;100042.91;4994628;27;46104;-66
2021/12/02 06:05:03;;;;;;;;;11.75;6.75;;;;;5.70;67.75;100077.59;4976412;28;45763;-66
2021/12/02 06:07:28;;;;;;;;;5.50;2.00;;;;;5.58;68.13;100063.16;5012932;27;45541;-65
2021/12/02 06:09:54;;;;;;;;;3.75;1.75;;;;;5.61;67.94;100070.13;4994947;28;45429;-63
2021/12/02 06:12:20;;;;;;;;;2.50;2.50;;;;;5.61;68.54;100081.53;4995118;28;45387;-64
2021/12/02 06:14:45;;;;;;;;;3.00;3.00;;;;;5.62;69.13;100079.75;4980109;28;45443;-67
2021/12/02 06:17:11;;;;;;;;;2.00;2.00;;;;;5.61;69.36;100091.22;5004195;27;45293;-64
2021/12/02 06:19:36;;;;;;;;;6.00;4.00;;;;;5.62;69.22;100077.09;4995487;28;45717;-67
2021/12/02 06:22:03;;;;;;;;;5.00;1.25;;;;;5.44;69.31;100044.47;4994289;28;45419;-68
2021/12/02 06:24:32;;;;;;;;;4.50;2.50;;;;;5.60;67.92;100065.78;4974083;28;45616;-66
2021/12/02 06:26:58;;;;;;;;;7.25;1.50;;;;;5.68;68.13;100097.94;4994715;28;45387;-66
2021/12/02 06:29:29;;;;;;;;;5.00;4.00;;;;;5.61;68.04;100067.47;4989360;28;45375;-63
2021/12/02 06:31:54;;;;;;;;;3.50;3.50;;;;;5.74;68.23;100073.06;4962813;28;47730;-64
2021/12/02 06:34:20;;;;;;;;;1.75;1.00;;;;;5.74;67.64;100067.78;4991866;28;45420;-64
2021/12/02 06:36:45;;;;;;;;;4.00;1.50;;;;;5.68;68.11;100074.19;4982843;27;45747;-61
2021/12/02 06:39:11;;;;;;;;;2.00;2.00;;;;;5.63;68.56;100077.03;5013653;27;46040;-62
2021/12/02 06:41:36;;;;;;;;;1.50;1.50;;;;;5.73;68.05;100092.44;4999814;28;46367;-67
2021/12/02 06:44:01;;;;;;;;;2.00;2.00;;;;;5.72;68.03;100094.22;4999590;27;45530;-63
2021/12/02 06:46:29;;;;;;;;;3.50;3.00;;;;;5.67;68.04;100103.28;5067513;27;45536;-65
2021/12/02 06:48:54;;;;;;;;;4.00;2.00;;;;;5.59;67.88;100100.94;5098004;27;45390;-63
2021/12/02 06:51:20;;;;;;;;;1.75;1.75;;;;;5.56;67.95;100114.28;5089477;27;45487;-62
2021/12/02 06:53:45;;;;;;;;;1.00;1.00;;;;;5.37;67.68;100110.72;5074631;27;45418;-61
2021/12/02 06:56:11;;;;;;;;;4.00;1.75;;;;;5.48;67.47;100141.00;5098969;27;45439;-65
2021/12/02 06:58:37;;;;;;;;;1.00;1.00;;;;;5.44;67.30;100133.25;5071803;27;45279;-64
2021/12/02 07:01:03;;;;;;;;;4.00;4.00;;;;;5.46;67.13;100137.53;5063947;27;45236;-63
2021/12/02 07:03:28;;;;;;;;;3.50;2.00;;;;;5.57;67.06;100137.09;5036114;27;45581;-64
2021/12/02 07:05:54;;;;;;;;;2.00;1.00;;;;;5.51;67.55;100142.66;4973483;28;45442;-65
2021/12/02 07:08:20;;;;;;;;;4.50;4.50;;;;;5.52;67.95;100153.13;5009651;27;45278;-63
2021/12/02 07:10:46;;;;;;;;;2.00;2.00;;;;;5.54;67.26;100161.81;5025943;27;46122;-61
2021/12/02 07:13:12;;;;;;;;;4.00;4.00;;;;;5.62;67.99;100169.44;5009168;28;45484;-67
2021/12/02 07:15:44;;;;;;;;;6.00;5.00;;;;;5.69;66.97;100159.47;4994763;27;45402;-62
2021/12/02 07:18:13;;;;;;;;;6.50;4.00;;;;;5.69;66.74;100155.03;4994863;28;45673;-64
2021/12/02 07:20:41;;;;;;;;;11.00;4.00;;;;;5.75;65.77;100159.22;4991516;27;45533;-67
2021/12/02 07:23:07;;;;;;;;;1.75;1.25;;;;;5.72;66.12;100168.09;5034208;27;45476;-67
2021/12/02 07:25:33;;;;;;;;;1.75;1.50;;;;;5.57;66.55;100160.84;4987900;27;45211;-64
2021/12/02 07:27:59;;;;;;;;;5.00;3.00;;;;;5.68;66.34;100173.56;4993105;27;45274;-62
2021/12/02 07:30:25;;;;;;;;;7.00;4.25;;;;;5.59;66.23;100177.44;4990733;27;45801;-65
2021/12/02 07:32:56;;;;;;;;;6.75;5.00;;;;;5.58;65.96;100181.88;4979403;28;46129;-63
2021/12/02 07:35:23;;;;;;;;;9.50;5.75;;;;;5.58;66.18;100183.66;4965066;28;45533;-66
2021/12/02 07:37:52;;;;;;;;;1.00;1.00;;;;;5.54;66.46;100190.00;4981872;28;45576;-61
2021/12/02 07:40:19;;;;;;;;;1.50;1.00;;;;;5.51;66.05;100171.66;5013297;27;46295;-66
2021/12/02 07:42:46;;;;;;;;;7.50;4.75;;;;;5.57;66.25;100177.53;5009467;27;45400;-65
2021/12/02 07:45:12;;;;;;;;;5.00;4.00;;;;;5.61;66.68;100183.53;4993490;28;45423;-66
2021/12/02 07:47:39;;;;;;;;;5.50;4.00;;;;;5.59;66.41;100159.00;4976738;28;45505;-67
2021/12/02 07:50:13;;;;;;;;;1.00;1.00;;;;;5.69;66.69;100173.50;4977179;28;45304;-65
2021/12/02 07:52:47;;;;;;;;;4.25;2.00;;;;;5.63;65.51;100163.22;4992012;28;45466;-69
2021/12/02 07:55:15;;;;;;;;;7.25;1.50;;;;;5.68;66.30;100177.06;4992977;28;45347;-63
2021/12/02 07:57:43;;;;;;;;;5.00;1.75;;;;;5.73;65.90;100182.13;4994727;27;45206;-66
2021/12/02 08:00:13;;;;;;;;;7.50;4.75;;;;;5.78;66.13;100175.75;4993685;28;45492;-64
2021/12/02 08:02:43;;;;;;;;;6.00;2.00;;;;;5.76;65.60;100172.34;4992987;27;45527;-66
2021/12/02 08:05:09;;;;;;;;;16.25;7.75;;;;;5.87;65.42;100193.84;4992113;27;45789;-64
2021/12/02 08:07:35;;;;;;;;;3.50;2.00;;;;;5.80;65.00;100165.13;4976257;28;45797;-63
2021/12/02 08:10:03;;;;;;;;;5.00;2.00;;;;;5.95;64.89;100200.59;4993381;28;46096;-65
2021/12/02 08:12:28;;;;;;;;;4.75;4.75;;;;;5.99;65.43;100202.16;4992260;28;45323;-60
2021/12/02 08:14:54;;;;;;;;;4.00;4.00;;;;;5.85;64.44;100208.88;4994498;28;45308;-68
2021/12/02 08:17:20;;;;;;;;;5.00;3.00;;;;;5.69;64.85;100222.78;5014672;27;45594;-67
2021/12/02 08:19:45;;;;;;;;;6.25;4.00;;;;;5.55;65.48;100182.00;5024405;27;45950;-68
2021/12/02 08:22:11;;;;;;;;;4.50;4.00;;;;;5.68;65.66;100195.53;4993385;28;45291;-61
2021/12/02 08:24:36;;;;;;;;;3.00;3.00;;;;;5.78;65.36;100215.34;4993742;27;45176;-62
2021/12/02 08:27:02;;;;;;;;;9.25;4.75;;;;;5.78;65.50;100223.25;4993657;28;45587;-65
2021/12/02 08:29:27;;;;;;;;;3.75;2.00;;;;;5.62;65.64;100220.41;4993341;28;46097;-63
2021/12/02 08:31:56;;;;;;;;;4.00;4.00;;;;;5.59;65.15;100230.22;4993379;28;45402;-60
2021/12/02 08:34:21;;;;;;;;;6.00;3.50;;;;;5.63;66.48;100234.47;4993436;28;45810;-62
2021/12/02 08:36:51;;;;;;;;;6.25;4.00;;;;;5.64;65.02;100241.44;4993703;28;45997;-69
2021/12/02 08:39:18;;;;;;;;;4.75;4.75;;;;;5.67;66.32;100240.47;4992713;28;46252;-67
2021/12/02 08:41:48;;;;;;;;;5.50;4.75;;;;;5.70;65.68;100229.78;4993497;28;45385;-67
2021/12/02 08:44:16;;;;;;;;;4.25;3.00;;;;;5.62;66.19;100245.94;4993586;27;45177;-64
2021/12/02 08:46:41;;;;;;;;;3.50;2.00;;;;;5.63;66.90;100240.59;4992243;27;45572;-64
2021/12/02 08:49:07;;;;;;;;;5.25;3.00;;;;;5.72;66.34;100244.59;4993470;27;45590;-65
2021/12/02 08:51:32;;;;;;;;;12.00;2.00;;;;;5.73;65.89;100246.34;4993072;28;45415;-65
2021/12/02 08:53:58;;;;;;;;;8.75;4.00;;;;;5.89;65.91;100249.19;4993215;28;45272;-65
2021/12/02 08:56:23;;;;;;;;;4.75;4.75;;;;;5.97;66.62;100244.47;4993574;27;45307;-65
2021/12/02 08:58:49;;;;;;;;;8.00;5.25;;;;;6.00;65.17;100252.28;4992834;28;45367;-68
2021/12/02 09:01:14;;;;;;;;;4.00;4.00;;;;;5.91;65.86;100244.75;4992989;27;45378;-64
2021/12/02 09:03:43;;;;;;;;;3.00;2.00;;;;;6.06;65.49;100253.78;4993175;28;45299;-70
2021/12/02 09:06:11;;;;;;;;;11.25;5.75;;;;;5.96;65.56;100242.75;4993354;27;45516;-71
2021/12/02 09:08:36;;;;;;;;;9.00;5.00;;;;;6.06;64.75;100264.34;4992807;28;46014;-66
2021/12/02 09:11:03;;;;;;;;;5.00;3.50;;;;;6.16;65.81;100266.53;4992038;27;45402;-65
2021/12/02 09:13:30;;;;;;;;;5.00;3.00;;;;;6.21;65.12;100263.69;4992978;28;45322;-62
2021/12/02 09:15:55;;;;;;;;;5.00;2.50;;;;;6.19;64.78;100273.47;4993243;28;45289;-63
2021/12/02 09:18:21;;;;;;;;;4.50;4.00;;;;;6.15;63.99;100262.19;5075047;27;46287;-65
2021/12/02 09:20:46;;;;;;;;;6.50;3.50;;;;;6.19;64.92;100284.03;5096066;27;45362;-63
2021/12/02 09:23:13;;;;;;;;;4.25;4.00;;;;;6.20;65.07;100277.81;5050335;27;45367;-65
2021/12/02 09:25:39;;;;;;;;;4.00;4.00;;;;;6.24;64.40;100268.81;5069707;27;45869;-63
2021/12/02 09:28:05;;;;;;;;;4.50;4.00;;;;;6.31;64.68;100286.13;5012150;27;46796;-64
2021/12/02 09:30:31;;;;;;;;;6.00;4.00;;;;;6.37;64.22;100290.28;5003750;27;45374;-66
2021/12/02 09:32:57;;;;;;;;;4.00;2.00;;;;;6.40;64.59;100290.16;5099961;27;45369;-66
2021/12/02 09:35:23;;;;;;;;;4.50;3.50;;;;;6.37;63.87;100285.84;5115643;27;45651;-65
2021/12/02 09:37:49;;;;;;;;;3.50;2.00;;;;;6.42;63.38;100283.03;5080944;27;47799;-64
2021/12/02 09:40:16;;;;;;;;;10.25;5.75;;;;;6.46;64.10;100290.75;5081723;27;45379;-67
2021/12/02 09:42:42;;;;;;;;;2.50;2.50;;;;;6.35;63.21;100292.13;5080811;27;45377;-67
2021/12/02 09:45:08;;;;;;;;;4.25;2.50;;;;;6.35;63.38;100290.34;5099347;27;45318;-65
2021/12/02 09:47:37;;;;;;;;;4.75;4.75;;;;;6.52;62.80;100307.28;5081749;27;46649;-68
2021/12/02 09:50:08;;;;;;;;;4.50;2.00;;;;;6.45;62.21;100304.03;4979265;28;45563;-68
2021/12/02 09:52:39;;;;;;;;;7.50;5.00;;;;;6.43;62.04;100300.59;4994213;28;45255;-68
2021/12/02 09:55:12;;;;;;;;;2.00;2.00;;;;;6.38;62.64;100308.72;4995711;28;45620;-66
2021/12/02 09:57:44;;;;;;;;;4.75;3.00;;;;;6.47;62.80;100313.59;5069638;27;46745;-66
2021/12/02 10:00:17;;;;;;;;;3.50;1.00;;;;;6.54;62.26;100308.91;5099130;27;45369;-66
2021/12/02 10:02:52;;;;;;;;;4.25;2.00;;;;;6.48;63.29;100291.53;5098905;27;45268;-63
2021/12/02 10:05:31;;;;;;;;;2.00;1.00;;;;;6.69;62.99;100317.94;5099325;27;45356;-65
2021/12/02 10:08:03;;;;;;;;;9.00;5.00;;;;;6.75;62.43;100317.66;5098961;27;45455;-66
2021/12/02 10:10:40;;;;;;;;;7.25;5.50;;;;;6.78;62.64;100301.69;5026528;27;45308;-65
2021/12/02 10:13:14;;;;;;;;;7.00;3.50;;;;;6.90;62.19;100316.09;4977572;28;45229;-64
2021/12/02 10:15:42;;;;;;;;;5.50;4.25;;;;;6.96;62.10;100311.41;4961928;28;45302;-65
2021/12/02 10:18:10;;;;;;;;;5.00;2.00;;;;;6.93;61.84;100314.19;4977305;28;45406;-67
2021/12/02 10:20:49;;;;;;;;;4.50;4.00;;;;;7.00;60.79;100322.69;4977278;28;45440;-63
2021/12/02 10:23:27;;;;;;;;;4.50;3.50;;;;;6.90;60.74;100324.03;4995141;28;45262;-65
2021/12/02 10:25:58;;;;;;;;;2.50;1.00;;;;;6.94;60.87;100323.84;4995475;28;45292;-65
2021/12/02 10:28:25;;;;;;;;;5.50;4.00;;;;;7.04;60.67;100304.00;4977075;28;45422;-66
2021/12/02 10:30:56;;;;;;;;;2.50;1.00;;;;;7.06;60.02;100310.06;5028920;27;45367;-64
2021/12/02 10:33:31;;;;;;;;;1.75;1.00;;;;;7.05;59.30;100321.56;5063969;27;45454;-66
2021/12/02 10:35:58;;;;;;;;;2.25;1.75;;;;;7.14;59.73;100316.78;5080276;27;45459;-67
2021/12/02 10:38:44;;;;;;;;;3.50;2.00;;;;;7.23;58.72;100316.34;5098649;27;45277;-63
2021/12/02 10:41:21;;;;;;;;;5.50;1.00;;;;;7.27;60.14;100321.41;4999158;27;45236;-64
2021/12/02 10:44:14;;;;;;;;;2.00;2.00;;;;;7.41;59.67;100302.25;4977610;28;45352;-68
2021/12/02 10:46:52;;;;;;;;;3.00;1.75;;;;;7.42;57.84;100303.97;4995240;28;45268;-63
2021/12/02 10:49:19;;;;;;;;;2.00;1.00;;;;;7.46;58.67;100294.13;4994754;28;45460;-66
2021/12/02 10:51:53;;;;;;;;;5.25;2.00;;;;;7.63;58.18;100297.66;4977146;28;45522;-61
2021/12/02 10:54:29;;;;;;;;;3.50;3.50;;;;;7.69;56.64;100302.66;4977248;28;45496;-67
2021/12/02 10:56:58;;;;;;;;;1.25;1.25;;;;;7.64;56.64;100295.84;4975520;28;45333;-65
2021/12/02 10:59:31;;;;;;;;;3.50;2.00;;;;;7.65;56.53;100286.97;4974940;28;45315;-66
2021/12/02 11:02:01;;;;;;;;;1.25;1.25;;;;;7.72;57.25;100276.97;4975191;28;45382;-66
2021/12/02 11:04:42;;;;;;;;;3.75;2.00;;;;;7.76;55.06;100292.63;4975488;28;45240;-66
2021/12/02 11:07:11;;;;;;;;;5.00;4.25;;;;;7.72;55.32;100285.78;4975175;28;45430;-63
2021/12/02 11:09:39;;;;;;;;;3.25;1.00;;;;;7.76;55.92;100281.16;4974894;28;45350;-66
2021/12/02 11:12:08;;;;;;;;;1.75;1.75;;;;;7.80;54.70;100278.28;4974800;28;45593;-62
2021/12/02 11:14:35;;;;;;;;;2.00;1.50;;;;;7.78;57.05;100287.25;4975343;28;45192;-66
2021/12/02 11:17:15;;;;;;;;;3.25;1.75;;;;;7.69;56.31;100294.72;4975290;28;45568;-64
2021/12/02 11:19:46;;;;;;;;;5.75;5.75;;;;;7.72;56.27;100290.22;4974599;28;46024;-65
2021/12/02 11:22:18;;;;;;;;;13.00;13.00;;;;;7.67;56.79;100272.75;4956990;28;45348;-64
2021/12/02 11:24:45;;;;;;;;;2.00;2.00;;;;;7.63;55.55;100276.47;4976092;28;45469;-64
2021/12/02 11:27:48;;;;;;;;;3.50;2.00;;;;;7.42;55.36;100274.00;4994327;27;45383;-65
2021/12/02 11:30:28;;;;;;;;;2.00;1.00;;;;;7.49;55.09;100272.78;5033858;28;45510;-65
2021/12/02 11:33:01;;;;;;;;;1.00;1.00;;;;;7.27;53.20;100294.13;4997665;28;45519;-67
2021/12/02 11:35:33;;;;;;;;;2.00;2.00;;;;;6.99;55.44;100282.19;4960595;28;45388;-70
2021/12/02 11:38:04;;;;;;;;;4.00;4.00;;;;;7.02;56.46;100289.97;4993755;28;45536;-64
2021/12/02 11:40:51;;;;;;;;;3.00;1.50;;;;;6.96;55.14;100284.97;4959486;28;48579;-66
2021/12/02 11:43:20;;;;;;;;;0.00;0.00;;;;;6.96;56.04;100286.75;4976075;28;45751;-64
2021/12/02 11:45:48;;;;;;;;;2.00;2.00;;;;;7.02;57.46;100295.25;4992869;27;45401;-66
2021/12/02 11:48:20;;;;;;;;;3.50;2.00;;;;;7.03;56.93;100289.06;4994117;27;45521;-65
2021/12/02 11:50:48;;;;;;;;;5.25;4.50;;;;;6.94;57.86;100283.34;4976143;28;47267;-66
2021/12/02 11:53:15;;;;;;;;;6.00;4.00;;;;;6.85;56.08;100276.66;4993602;27;45430;-66
2021/12/02 11:55:42;;;;;;;;;3.00;1.00;;;;;7.03;55.98;100277.59;4993138;28;45331;-63
2021/12/02 11:58:08;;;;;;;;;4.00;4.00;;;;;7.10;55.75;100271.13;4993604;28;45513;-65
2021/12/02 12:00:35;;;;;;;;;2.00;2.00;;;;;7.09;55.74;100261.47;4976273;28;46371;-67